Taganrogskiy Zaliv — 9HA2995 — position and weather

sailwx.info

Track history (hours):
 
Tides and Currents Weather Stations Pressure Air Temp Water Temp Dewpoint Dewpoint Depression Visibility Wind Speed Wind Dir Waves Ship Positions

Taganrogskiy Zaliv

Last reported at 2017-Nov-19 01:22 UTC. Time now 2017-Nov-19 18:19 UTC.
Position N 45°13' E 036°28'.

Length 128 m; draft 4.3 m.

Type: Ship. MMSI: 229019000.

Date/timePositionNaut miles runAvg speedWind from/ knotsBaromVisibWave heightAir tempDewpointWater temp
2017-Nov-19 01:22N 45°13' E 036°28'3 8.2
2017-Nov-19 01:00N 45°16' E 036°28'3 6.9
2017-Nov-19 00:30N 45°19' E 036°31'5 9.3
2017-Nov-19 00:01N 45°20' E 036°37'4 7.8
2017-Nov-18 23:31N 45°24' E 036°40'4 8.2
2017-Nov-18 23:01N 45°28' E 036°41'3 5.8
2017-Nov-18 22:29N 45°30' E 036°38'0 0.1
2017-Nov-18 22:00N 45°30' E 036°38'0 0.0
2017-Nov-18 21:30N 45°30' E 036°38'0 0.0
2017-Nov-18 21:01N 45°30' E 036°38'0 0.0
2017-Nov-18 20:30N 45°30' E 036°38'0 0.0
2017-Nov-18 20:01N 45°30' E 036°38'0 0.0
2017-Nov-18 19:28N 45°30' E 036°38'0 0.0
2017-Nov-18 19:00N 45°30' E 036°38'0 0.0
2017-Nov-18 18:30N 45°30' E 036°38'0 0.0
2017-Nov-18 18:00N 45°30' E 036°38'0 0.0
2017-Nov-18 17:30N 45°30' E 036°38'0 0.0
2017-Nov-18 17:00N 45°30' E 036°38'0 0.0
2017-Nov-18 16:27N 45°30' E 036°38'0 0.0
2017-Nov-18 16:00N 45°30' E 036°38'0 0.0
2017-Nov-18 15:30N 45°30' E 036°38'0 0.0
2017-Nov-18 15:00N 45°30' E 036°38'0 0.0
2017-Nov-18 14:30N 45°30' E 036°38'0 0.0
2017-Nov-18 14:00N 45°30' E 036°38'0 0.0
2017-Nov-18 13:30N 45°30' E 036°38'0 0.0
2017-Nov-18 13:00N 45°30' E 036°38'0 0.0
2017-Nov-18 12:30N 45°30' E 036°38'0 0.4
2017-Nov-18 12:01N 45°30' E 036°38'3 6.4
2017-Nov-18 11:29N 45°33' E 036°39'  
2017-Nov-09 19:48N 45°32' E 036°45'3 8.5
2017-Nov-09 19:30N 45°29' E 036°43'4 8.6
2017-Nov-09 19:01N 45°25' E 036°41'4 8.3
2017-Nov-09 18:30N 45°21' E 036°40'3 6.0
2017-Nov-09 18:00N 45°20' E 036°36'4 7.2
2017-Nov-09 17:30N 45°19' E 036°31'3 6.6
2017-Nov-09 17:01N 45°16' E 036°28'3 5.9
2017-Nov-09 16:31N 45°13' E 036°29'  
Track history (hours):
 
Tides and Currents Weather Stations Pressure Air Temp Water Temp Dewpoint Dewpoint Depression Visibility Wind Speed Wind Dir Waves Ship Positions

Taganrogskiy Zaliv

Last reported at 2017-Nov-19 01:22 UTC. Time now 2017-Nov-19 18:19 UTC.
Position N 45°13' E 036°28'.

Length 128 m; draft 4.3 m.

Type: Ship. MMSI: 229019000.

Date/timePositionNaut miles runAvg speedWind from/ knotsBaromVisibWave heightAir tempDewpointWater temp
2017-Nov-19 01:22N 45°13' E 036°28'3 8.2
2017-Nov-19 01:00N 45°16' E 036°28'3 6.9
2017-Nov-19 00:30N 45°19' E 036°31'5 9.3
2017-Nov-19 00:01N 45°20' E 036°37'4 7.8
2017-Nov-18 23:31N 45°24' E 036°40'4 8.2
2017-Nov-18 23:01N 45°28' E 036°41'3 5.8
2017-Nov-18 22:29N 45°30' E 036°38'0 0.1
2017-Nov-18 22:00N 45°30' E 036°38'0 0.0
2017-Nov-18 21:30N 45°30' E 036°38'0 0.0
2017-Nov-18 21:01N 45°30' E 036°38'0 0.0
2017-Nov-18 20:30N 45°30' E 036°38'0 0.0
2017-Nov-18 20:01N 45°30' E 036°38'0 0.0
2017-Nov-18 19:28N 45°30' E 036°38'0 0.0
2017-Nov-18 19:00N 45°30' E 036°38'0 0.0
2017-Nov-18 18:30N 45°30' E 036°38'0 0.0
2017-Nov-18 18:00N 45°30' E 036°38'0 0.0
2017-Nov-18 17:30N 45°30' E 036°38'0 0.0
2017-Nov-18 17:00N 45°30' E 036°38'0 0.0
2017-Nov-18 16:27N 45°30' E 036°38'0 0.0
2017-Nov-18 16:00N 45°30' E 036°38'0 0.0
2017-Nov-18 15:30N 45°30' E 036°38'0 0.0
2017-Nov-18 15:00N 45°30' E 036°38'0 0.0
2017-Nov-18 14:30N 45°30' E 036°38'0 0.0
2017-Nov-18 14:00N 45°30' E 036°38'0 0.0
2017-Nov-18 13:30N 45°30' E 036°38'0 0.0
2017-Nov-18 13:00N 45°30' E 036°38'0 0.0
2017-Nov-18 12:30N 45°30' E 036°38'0 0.4
2017-Nov-18 12:01N 45°30' E 036°38'3 6.4
2017-Nov-18 11:29N 45°33' E 036°39'  
2017-Nov-09 19:48N 45°32' E 036°45'3 8.5
2017-Nov-09 19:30N 45°29' E 036°43'4 8.6
2017-Nov-09 19:01N 45°25' E 036°41'4 8.3
2017-Nov-09 18:30N 45°21' E 036°40'3 6.0
2017-Nov-09 18:00N 45°20' E 036°36'4 7.2
2017-Nov-09 17:30N 45°19' E 036°31'3 6.6
2017-Nov-09 17:01N 45°16' E 036°28'3 5.9
2017-Nov-09 16:31N 45°13' E 036°29'  

Dump ship's entire track history